Accueil
METAR-TAF:

METAR-TAF

Aéroports :

Aéroport international de Bilbao

Bilbao, Espagne

latitude: 43-18N, longitude: 002-56W, altitude: 42 m

Observation

Le bulletin a été fait il y a 31 minutes, à 22:30 UTC
Vent 4 kt de est
Température 16°C
Humidité 82%
Pression 1022 hPa
Visibilité 10 km ou plus

METAR: LEBB 222230Z AUTO 10004KT 9999 NCD 16/13 Q1022

Heure: 01:01 (23:01 UTC)

Prévision

Le bulletin a été fait il y a 6 heures et 1 minutes, à 17:00 UTC
Prévision valable du 22 à 18 UTC au 23 à 18 UTC
Vent 8 kt de est
Visibilité 10 km ou plus
pas de nuages en-dessous de 1500 mètres et pas de cumulonimbus.

TAF: LEBB 221700Z 2218/2318 08008KT CAVOK TX35/2314Z TN13/2306Z

Observations et prévisions météorologiques de plus de 4000 aéroports (messages METAR et TAF).

Les stations disponibles sont représentées par des disques jaunes et rouges sur la carte.

Passer la souris dessus pour voir le nom de la station.

Cliquer dessus pour voir les observations et prévisions météorologiques.

Pour changer de carte: cliquez sur les boutons verts avec une croix noire pour zoomer, sur le bouton vert avec un tiret pour effectuer un zoom arrière, ou sur les flèches vertes pour les cartes adjacentes.


METAR-TAF: